createdAt,value
2022-10-28T00:01:15.191Z,23.20
2022-10-28T00:03:44.947Z,26.48
2022-10-28T00:06:25.283Z,30.55
2022-10-28T00:08:55.089Z,31.58
2022-10-28T00:11:25.496Z,23.65
2022-10-28T00:13:57.091Z,30.60
2022-10-28T00:16:29.321Z,27.42
2022-10-28T00:18:58.245Z,28.00
2022-10-28T00:21:29.130Z,27.27
2022-10-28T00:23:56.518Z,26.77
2022-10-28T00:26:42.669Z,27.55
2022-10-28T00:29:18.303Z,27.27
2022-10-28T00:31:45.599Z,25.33
2022-10-28T00:34:15.390Z,28.58
2022-10-28T00:36:44.527Z,24.60
2022-10-28T00:39:15.505Z,22.35
2022-10-28T00:41:46.282Z,27.35
2022-10-28T00:44:44.228Z,22.45
2022-10-28T00:49:44.684Z,20.83
2022-10-28T00:52:18.922Z,22.90
2022-10-28T00:54:46.283Z,18.42
2022-10-28T00:57:17.118Z,17.73
2022-10-28T00:59:48.885Z,21.30
2022-10-28T01:02:16.409Z,20.77
2022-10-28T01:04:44.541Z,19.05
2022-10-28T01:07:11.479Z,26.33
2022-10-28T01:09:40.520Z,19.00
2022-10-28T01:12:27.552Z,18.45
2022-10-28T01:17:36.422Z,17.52
2022-10-28T01:20:41.772Z,21.88
2022-10-28T01:23:16.566Z,19.05
2022-10-28T01:26:01.943Z,19.48
2022-10-28T01:28:50.412Z,19.88
2022-10-28T01:31:41.074Z,23.27
2022-10-28T01:34:32.159Z,19.38
2022-10-28T01:37:17.449Z,15.95
2022-10-28T01:39:53.681Z,17.65
2022-10-28T01:42:29.456Z,20.60
2022-10-28T01:45:20.906Z,20.80
2022-10-28T01:47:54.573Z,20.30
2022-10-28T01:50:27.405Z,21.45
2022-10-28T01:52:58.396Z,17.30
2022-10-28T01:55:36.562Z,16.08
2022-10-28T01:58:05.252Z,18.25
2022-10-28T02:00:34.570Z,20.05
2022-10-28T02:03:01.453Z,21.88
2022-10-28T02:05:48.707Z,21.92
2022-10-28T02:08:18.328Z,18.25
2022-10-28T02:11:03.365Z,18.75
2022-10-28T02:13:52.965Z,21.05
2022-10-28T02:16:25.486Z,16.70
2022-10-28T02:19:13.680Z,15.00
2022-10-28T02:21:49.945Z,18.30
2022-10-28T02:24:22.812Z,17.95
2022-10-28T02:27:12.866Z,18.30
2022-10-28T02:30:06.014Z,19.95
2022-10-28T02:32:38.862Z,19.15
2022-10-28T02:35:10.679Z,15.88
2022-10-28T02:37:40.702Z,16.85
2022-10-28T02:40:13.015Z,22.42
2022-10-28T02:42:58.394Z,22.08
2022-10-28T02:45:40.300Z,17.83
2022-10-28T02:48:29.555Z,16.80
2022-10-28T02:51:06.379Z,14.70
2022-10-28T02:53:44.541Z,18.85
2022-10-28T02:56:15.112Z,16.05
2022-10-28T02:58:42.521Z,15.70
2022-10-28T03:01:09.544Z,17.90
2022-10-28T03:03:36.905Z,17.95
2022-10-28T03:06:04.219Z,19.58
2022-10-28T03:08:31.162Z,20.13
2022-10-28T03:10:58.202Z,17.02
2022-10-28T03:13:24.982Z,20.65
2022-10-28T03:15:52.125Z,21.20
2022-10-28T03:18:19.004Z,20.13
2022-10-28T03:20:45.872Z,19.67
2022-10-28T03:23:13.463Z,18.05
2022-10-28T03:25:40.405Z,19.17
2022-10-28T03:28:07.312Z,17.77
2022-10-28T03:30:42.331Z,18.40
2022-10-28T03:33:09.482Z,19.83
2022-10-28T03:35:36.317Z,21.45
2022-10-28T03:38:03.582Z,24.50
2022-10-28T03:40:30.523Z,19.75
2022-10-28T03:42:57.652Z,16.20
2022-10-28T03:45:26.415Z,17.80
2022-10-28T03:47:53.692Z,15.57
2022-10-28T03:50:21.076Z,18.77
2022-10-28T03:52:48.234Z,15.57
2022-10-28T03:55:15.182Z,17.30
2022-10-28T03:57:42.140Z,18.27
2022-10-28T04:00:09.802Z,18.50
2022-10-28T04:02:39.122Z,18.25
2022-10-28T04:05:07.783Z,17.23
2022-10-28T04:07:35.362Z,18.23
2022-10-28T04:10:02.274Z,15.63
2022-10-28T04:12:30.322Z,16.73
2022-10-28T04:14:57.378Z,15.35
2022-10-28T04:17:24.365Z,16.17
2022-10-28T04:19:51.166Z,19.63
2022-10-28T04:22:18.454Z,17.23
2022-10-28T04:24:45.284Z,19.10
2022-10-28T04:27:12.151Z,18.45
2022-10-28T04:29:39.012Z,18.15
2022-10-28T04:32:05.951Z,20.23
2022-10-28T04:34:32.944Z,17.35
2022-10-28T04:37:00.947Z,21.48
2022-10-28T04:39:27.892Z,22.27
2022-10-28T04:41:55.225Z,17.58
2022-10-28T04:44:22.208Z,19.13
2022-10-28T04:46:48.995Z,22.90
2022-10-28T04:49:16.098Z,37.90
2022-10-28T04:51:43.394Z,22.65
2022-10-28T04:54:10.524Z,19.02
2022-10-28T04:56:37.679Z,23.52
2022-10-28T04:59:04.752Z,22.17
2022-10-28T05:01:31.673Z,22.90
2022-10-28T05:04:00.784Z,27.45
2022-10-28T05:06:28.929Z,27.50
2022-10-28T05:08:55.923Z,21.83
2022-10-28T05:11:29.388Z,21.00
2022-10-28T05:13:56.375Z,26.55
2022-10-28T05:16:23.500Z,24.50
2022-10-28T05:18:50.365Z,22.48
2022-10-28T05:21:17.437Z,22.45
2022-10-28T05:23:44.322Z,20.80
2022-10-28T05:26:11.184Z,28.23
2022-10-28T05:28:38.133Z,27.75
2022-10-28T05:31:05.017Z,26.90
2022-10-28T05:33:33.736Z,29.55
2022-10-28T05:36:01.097Z,29.75
2022-10-28T05:38:28.223Z,34.90
2022-10-28T05:40:55.379Z,30.08
2022-10-28T05:43:22.515Z,32.22
2022-10-28T05:45:57.131Z,27.45
2022-10-28T05:48:24.576Z,33.63
2022-10-28T05:50:51.456Z,25.10
2022-10-28T05:53:18.284Z,25.23
2022-10-28T05:55:47.788Z,33.78
2022-10-28T05:58:15.333Z,24.60
2022-10-28T06:00:42.091Z,25.65
2022-10-28T06:03:12.351Z,39.83
2022-10-28T06:05:45.323Z,44.05
2022-10-28T06:08:13.779Z,36.92
2022-10-28T06:10:41.979Z,37.03
2022-10-28T06:13:07.901Z,32.55
2022-10-28T06:15:34.980Z,27.13
2022-10-28T06:18:01.823Z,31.38
2022-10-28T06:20:28.733Z,30.75
2022-10-28T06:22:56.423Z,31.08
2022-10-28T06:25:24.909Z,25.08
2022-10-28T06:27:54.331Z,27.45
2022-10-28T06:30:22.561Z,21.27
2022-10-28T06:32:49.646Z,22.67
2022-10-28T06:35:17.255Z,28.88
2022-10-28T06:37:44.058Z,36.58
2022-10-28T06:40:10.997Z,34.38
2022-10-28T06:42:45.674Z,34.72
2022-10-28T06:45:12.701Z,31.83
2022-10-28T06:47:41.692Z,32.65
2022-10-28T06:50:09.033Z,25.65
2022-10-28T06:52:36.065Z,25.50
2022-10-28T06:55:02.964Z,29.67
2022-10-28T06:57:31.022Z,18.75
2022-10-28T06:59:57.941Z,19.10
2022-10-28T07:02:24.784Z,20.35
2022-10-28T07:04:51.855Z,20.05
2022-10-28T07:07:19.759Z,29.48
2022-10-28T07:09:46.720Z,17.20
2022-10-28T07:12:13.710Z,28.02
2022-10-28T07:14:43.005Z,29.48
2022-10-28T07:17:09.893Z,33.75
2022-10-28T07:19:36.806Z,27.17
2022-10-28T07:22:03.662Z,29.65
2022-10-28T07:24:30.600Z,25.20
2022-10-28T07:26:57.944Z,29.20
2022-10-28T07:29:25.315Z,31.17
2022-10-28T07:31:54.840Z,49.47
2022-10-28T07:34:27.005Z,25.10
2022-10-28T07:36:55.365Z,30.88
2022-10-28T07:39:22.551Z,32.63
2022-10-28T07:41:49.523Z,23.63
2022-10-28T07:44:16.520Z,25.25
2022-10-28T07:46:43.499Z,17.55
2022-10-28T07:49:10.928Z,19.17
2022-10-28T07:51:37.797Z,23.25
2022-10-28T07:54:06.074Z,30.75
2022-10-28T07:56:32.894Z,25.25
2022-10-28T07:59:00.619Z,21.92
2022-10-28T08:01:27.652Z,17.20
2022-10-28T08:03:54.824Z,25.10
2022-10-28T08:06:22.258Z,26.85
2022-10-28T08:08:54.716Z,26.75
2022-10-28T08:11:25.575Z,25.02
2022-10-28T08:13:53.768Z,17.88
2022-10-28T08:16:20.770Z,11.35
2022-10-28T08:18:48.182Z,17.67
2022-10-28T08:21:15.447Z,12.77
2022-10-28T08:23:46.681Z,12.60
2022-10-28T08:26:15.098Z,14.35
2022-10-28T08:28:42.827Z,14.35
2022-10-28T08:31:12.493Z,13.27
2022-10-28T08:33:42.813Z,16.02
2022-10-28T08:36:12.725Z,18.73
2022-10-28T08:38:45.157Z,13.35
2022-10-28T08:41:30.627Z,19.55
2022-10-28T08:44:23.978Z,21.23
2022-10-28T08:47:09.358Z,20.88
2022-10-28T08:49:41.724Z,17.58
2022-10-28T08:52:30.493Z,22.08
2022-10-28T08:55:07.745Z,14.43
2022-10-28T08:57:47.367Z,17.90
2022-10-28T09:00:28.529Z,17.25
2022-10-28T09:03:14.748Z,17.33
2022-10-28T09:05:45.168Z,16.65
2022-10-28T09:08:29.592Z,17.30
2022-10-28T09:11:34.822Z,19.55
2022-10-28T09:14:30.132Z,21.08
2022-10-28T09:17:14.047Z,20.33
2022-10-28T09:19:52.975Z,18.98
2022-10-28T09:23:01.071Z,19.75
2022-10-28T09:25:49.721Z,20.05
2022-10-28T09:28:46.685Z,13.02
2022-10-28T09:31:37.961Z,13.43
2022-10-28T09:34:14.425Z,16.60
2022-10-28T09:36:46.704Z,8.55
2022-10-28T09:39:28.050Z,8.57
2022-10-28T09:41:59.917Z,10.32
2022-10-28T09:44:54.375Z,10.88
2022-10-28T09:47:26.891Z,11.02
2022-10-28T09:50:00.069Z,11.18
2022-10-28T09:52:33.649Z,12.82
2022-10-28T09:55:08.056Z,11.85
2022-10-28T09:57:35.311Z,12.82
2022-10-28T10:00:02.421Z,12.77
2022-10-28T10:02:32.159Z,10.13
2022-10-28T10:05:00.858Z,13.90
2022-10-28T10:07:35.958Z,17.02
2022-10-28T10:10:10.653Z,20.95
2022-10-28T10:12:39.240Z,19.52
2022-10-28T10:15:11.930Z,28.48
2022-10-28T10:17:48.994Z,15.35
2022-10-28T10:20:19.893Z,16.60
2022-10-28T10:22:49.409Z,21.00
2022-10-28T10:25:19.258Z,22.05
2022-10-28T10:28:15.812Z,14.68
2022-10-28T10:30:52.666Z,12.10
2022-10-28T10:33:26.738Z,16.02
2022-10-28T10:36:00.181Z,17.48
2022-10-28T10:38:29.133Z,11.80
2022-10-28T10:40:56.895Z,9.55
2022-10-28T10:43:37.065Z,10.43
2022-10-28T10:46:05.317Z,11.30
2022-10-28T10:48:38.619Z,9.07
2022-10-28T10:51:07.167Z,8.23
2022-10-28T10:53:35.511Z,11.80
2022-10-28T10:56:05.516Z,10.55
2022-10-28T10:58:40.281Z,9.05
2022-10-28T11:01:09.724Z,9.52
2022-10-28T11:03:50.283Z,10.65
2022-10-28T11:06:30.501Z,9.80
2022-10-28T11:09:02.806Z,9.88
2022-10-28T11:11:36.273Z,9.77
2022-10-28T11:14:10.144Z,13.75
2022-10-28T11:17:00.461Z,7.80
2022-10-28T11:19:37.272Z,8.95
2022-10-28T11:22:38.449Z,11.88
2022-10-28T11:25:34.783Z,8.07
2022-10-28T11:28:21.845Z,8.48
2022-10-28T11:31:00.519Z,9.20
2022-10-28T11:34:09.235Z,10.82
2022-10-28T11:37:10.196Z,9.70
2022-10-28T11:40:14.064Z,9.38
2022-10-28T11:43:18.543Z,10.88
2022-10-28T11:45:51.560Z,10.65
2022-10-28T11:48:33.180Z,12.40
2022-10-28T11:51:18.215Z,7.72
2022-10-28T11:54:13.343Z,11.15
2022-10-28T11:56:47.656Z,9.32
2022-10-28T11:59:17.385Z,12.38
2022-10-28T12:02:12.239Z,7.85
2022-10-28T12:04:53.515Z,9.30
2022-10-28T12:07:35.419Z,8.10
2022-10-28T12:10:19.719Z,13.13
2022-10-28T12:13:05.253Z,12.90
2022-10-28T12:15:31.991Z,15.30
2022-10-28T12:18:11.610Z,10.55
2022-10-28T12:20:42.634Z,10.00
2022-10-28T12:23:17.164Z,11.30
2022-10-28T12:25:48.193Z,11.57
2022-10-28T12:28:21.774Z,15.70
2022-10-28T12:30:51.014Z,14.23
2022-10-28T12:33:23.943Z,10.60
2022-10-28T12:35:57.893Z,11.55
2022-10-28T12:38:38.574Z,15.07
2022-10-28T12:41:14.423Z,18.42
2022-10-28T12:44:03.084Z,12.75
2022-10-28T12:46:54.860Z,14.63
2022-10-28T12:49:43.992Z,11.85
2022-10-28T12:52:25.121Z,14.23
2022-10-28T12:55:01.897Z,9.77
2022-10-28T12:57:31.013Z,11.85
2022-10-28T13:00:02.230Z,12.77
2022-10-28T13:02:35.732Z,11.55
2022-10-28T13:05:04.897Z,13.18
2022-10-28T13:07:47.560Z,11.85
2022-10-28T13:13:09.330Z,9.80
2022-10-28T13:15:57.900Z,13.30
2022-10-28T13:18:34.891Z,9.38
2022-10-28T13:21:34.285Z,11.25
2022-10-28T13:24:21.464Z,10.95
2022-10-28T13:26:49.293Z,10.73
2022-10-28T13:29:29.502Z,16.30
2022-10-28T13:31:56.546Z,12.82
2022-10-28T13:34:35.299Z,13.50
2022-10-28T13:37:05.081Z,8.75
2022-10-28T13:39:34.793Z,12.07
2022-10-28T13:42:13.889Z,11.10
2022-10-28T13:44:49.509Z,15.15
2022-10-28T13:47:33.829Z,14.27
2022-10-28T13:50:06.560Z,11.93
2022-10-28T13:52:45.159Z,10.73
2022-10-28T13:55:43.646Z,13.57
2022-10-28T13:58:23.194Z,12.45
2022-10-28T14:00:53.260Z,10.95
2022-10-28T14:03:27.295Z,8.88
2022-10-28T14:05:59.665Z,9.43
2022-10-28T14:08:38.533Z,16.20
2022-10-28T14:11:32.997Z,10.55
2022-10-28T14:14:03.504Z,11.90
2022-10-28T14:16:38.345Z,8.50
2022-10-28T14:19:11.302Z,12.95
2022-10-28T14:21:48.830Z,19.35
2022-10-28T14:24:35.984Z,15.77
2022-10-28T14:27:08.741Z,11.10
2022-10-28T14:30:04.199Z,16.60
2022-10-28T14:32:30.940Z,13.15
2022-10-28T14:35:19.390Z,15.80
2022-10-28T14:38:12.235Z,19.10
2022-10-28T14:40:41.925Z,11.05
2022-10-28T14:43:30.327Z,11.65
2022-10-28T14:46:19.237Z,12.35
2022-10-28T14:48:52.459Z,21.30
2022-10-28T14:51:24.473Z,17.92
2022-10-28T14:53:56.653Z,13.57
2022-10-28T14:56:29.095Z,15.38
2022-10-28T14:59:05.197Z,19.08
2022-10-28T15:01:50.787Z,18.30
2022-10-28T15:04:18.438Z,17.70
2022-10-28T15:06:48.240Z,22.33
2022-10-28T15:09:27.434Z,28.75
2022-10-28T15:11:59.950Z,44.63
2022-10-28T15:14:26.716Z,53.25
2022-10-28T15:16:53.895Z,47.38
2022-10-28T15:19:24.775Z,42.08
2022-10-28T15:22:01.824Z,45.78
2022-10-28T15:24:28.693Z,47.90
2022-10-28T15:26:56.683Z,51.17
2022-10-28T15:29:24.552Z,44.45
2022-10-28T15:32:26.780Z,47.70
2022-10-28T15:34:53.793Z,47.58
2022-10-28T15:37:27.020Z,49.20
2022-10-28T15:40:12.559Z,47.88
2022-10-28T15:42:59.500Z,57.53
2022-10-28T15:45:29.627Z,58.60
2022-10-28T15:47:58.585Z,57.35
2022-10-28T15:50:34.125Z,80.22
2022-10-28T15:53:09.995Z,69.32
2022-10-28T15:58:35.890Z,72.47
2022-10-28T16:01:03.101Z,88.43
2022-10-28T16:03:48.476Z,86.28
2022-10-28T16:06:24.109Z,81.88
2022-10-28T16:09:09.828Z,77.23
2022-10-28T16:11:42.713Z,85.28
2022-10-28T16:14:46.604Z,81.88
2022-10-28T16:17:18.313Z,86.85
2022-10-28T16:20:00.473Z,67.53
2022-10-28T16:22:29.489Z,62.08
2022-10-28T16:24:56.718Z,59.80
2022-10-28T16:27:31.925Z,58.80
2022-10-28T16:29:58.979Z,52.65
2022-10-28T16:32:31.750Z,53.83
2022-10-28T16:35:01.151Z,50.13
2022-10-28T16:37:31.082Z,44.13
2022-10-28T16:40:00.976Z,51.13
2022-10-28T16:42:27.955Z,44.58
2022-10-28T16:44:54.782Z,45.67
2022-10-28T16:47:24.426Z,53.30
2022-10-28T16:49:54.509Z,49.05
2022-10-28T16:52:28.234Z,46.25
2022-10-28T16:54:55.931Z,41.88
2022-10-28T16:59:51.365Z,44.97
2022-10-28T17:02:27.736Z,57.20
2022-10-28T17:04:55.388Z,45.50
2022-10-28T17:07:30.821Z,41.60
2022-10-28T17:09:57.743Z,51.53
2022-10-28T17:12:27.084Z,46.75
2022-10-28T17:14:54.113Z,43.92
2022-10-28T17:17:23.436Z,52.33
2022-10-28T17:19:50.408Z,48.72
2022-10-28T17:22:17.377Z,50.08
2022-10-28T17:24:44.302Z,55.72
2022-10-28T17:27:11.145Z,44.88
2022-10-28T17:29:39.041Z,59.63
2022-10-28T17:32:09.907Z,55.60
2022-10-28T17:34:36.773Z,54.67
2022-10-28T17:37:04.504Z,63.40
2022-10-28T17:39:31.348Z,60.65
2022-10-28T17:42:16.770Z,57.53
2022-10-28T17:44:43.582Z,62.95
2022-10-28T17:47:12.304Z,66.82
2022-10-28T17:49:39.306Z,68.63
2022-10-28T17:52:06.141Z,64.70
2022-10-28T17:54:33.053Z,72.57
2022-10-28T17:57:00.025Z,68.57
2022-10-28T17:59:26.913Z,70.65
2022-10-28T18:01:54.915Z,70.32
2022-10-28T18:04:26.682Z,81.65
2022-10-28T18:06:55.372Z,71.00
2022-10-28T18:09:22.555Z,69.53
2022-10-28T18:11:50.755Z,74.30
2022-10-28T18:14:18.053Z,68.55
2022-10-28T18:16:46.124Z,77.90
2022-10-28T18:19:13.784Z,75.03
2022-10-28T18:21:40.596Z,76.22
2022-10-28T18:24:07.898Z,79.47
2022-10-28T18:26:36.983Z,75.95
2022-10-28T18:29:05.662Z,79.45
2022-10-28T18:31:33.840Z,79.72
2022-10-28T18:34:01.698Z,76.60
2022-10-28T18:36:34.459Z,88.03
2022-10-28T18:39:04.654Z,79.97
2022-10-28T18:41:32.246Z,83.15
2022-10-28T18:44:01.606Z,80.47
2022-10-28T18:46:30.067Z,68.70
2022-10-28T18:51:27.568Z,78.50
2022-10-28T18:53:55.773Z,70.63
2022-10-28T18:56:30.922Z,75.82
2022-10-28T18:58:58.745Z,84.60
2022-10-28T19:01:28.328Z,63.13
2022-10-28T19:04:00.327Z,80.07
2022-10-28T19:06:32.970Z,71.85
2022-10-28T19:09:02.345Z,82.38
2022-10-28T19:11:31.374Z,86.45
2022-10-28T19:14:00.301Z,81.20
2022-10-28T19:16:28.577Z,90.80
2022-10-28T19:18:57.393Z,89.28
2022-10-28T19:21:25.523Z,78.70
2022-10-28T19:23:52.927Z,80.25
2022-10-28T19:26:20.170Z,75.50
2022-10-28T19:28:48.425Z,84.10
2022-10-28T19:31:24.762Z,97.18
2022-10-28T19:33:55.272Z,140.27
2022-10-28T19:36:27.134Z,138.23
2022-10-28T19:38:54.966Z,152.05
2022-10-28T19:41:24.806Z,156.70
2022-10-28T19:43:58.230Z,157.75
2022-10-28T19:46:27.249Z,154.38
2022-10-28T19:48:56.677Z,158.30
2022-10-28T19:51:27.327Z,136.30
2022-10-28T19:53:57.037Z,155.88
2022-10-28T19:56:24.030Z,128.52
2022-10-28T19:58:53.565Z,127.40
2022-10-28T20:01:22.204Z,96.20
2022-10-28T20:03:53.201Z,83.32
2022-10-28T20:06:25.598Z,69.45
2022-10-28T20:08:53.195Z,66.07
2022-10-28T20:11:25.886Z,59.90
2022-10-28T20:14:02.374Z,62.92
2022-10-28T20:16:29.418Z,65.22
2022-10-28T20:18:57.767Z,80.10
2022-10-28T20:21:30.226Z,87.50
2022-10-28T20:23:58.169Z,68.93
2022-10-28T20:26:30.750Z,68.95
2022-10-28T20:28:58.281Z,65.07
2022-10-28T20:31:27.295Z,57.85
2022-10-28T20:34:03.921Z,50.90
2022-10-28T20:36:39.036Z,56.35
2022-10-28T20:39:13.825Z,67.60
2022-10-28T20:41:42.076Z,69.05
2022-10-28T20:44:08.893Z,62.15
2022-10-28T20:46:36.320Z,64.93
2022-10-28T20:49:04.194Z,67.90
2022-10-28T20:51:32.497Z,64.60
2022-10-28T20:54:00.317Z,57.90
2022-10-28T20:56:29.671Z,54.20
2022-10-28T20:58:58.113Z,54.95
2022-10-28T21:01:30.864Z,64.25
2022-10-28T21:04:00.526Z,63.00
2022-10-28T21:06:28.029Z,67.85
2022-10-28T21:08:55.478Z,71.78
2022-10-28T21:11:23.652Z,59.53
2022-10-28T21:13:52.657Z,60.60
2022-10-28T21:16:20.614Z,60.60
2022-10-28T21:18:49.688Z,60.47
2022-10-28T21:21:17.567Z,63.85
2022-10-28T21:23:44.449Z,60.47
2022-10-28T21:26:12.504Z,59.08
2022-10-28T21:28:42.612Z,56.22
2022-10-28T21:31:15.045Z,65.57
2022-10-28T21:33:43.039Z,62.22
2022-10-28T21:36:12.974Z,57.95
2022-10-28T21:38:40.060Z,58.35
2022-10-28T21:41:18.379Z,64.95
2022-10-28T21:43:50.945Z,58.63
2022-10-28T21:46:18.991Z,51.30
2022-10-28T21:48:46.601Z,53.13
2022-10-28T21:51:15.481Z,52.97
2022-10-28T21:53:44.178Z,52.45
2022-10-28T21:56:18.857Z,40.22
2022-10-28T21:58:48.243Z,47.78
2022-10-28T22:01:18.964Z,39.47
2022-10-28T22:03:46.139Z,49.78
2022-10-28T22:06:13.344Z,40.90
2022-10-28T22:08:40.178Z,51.78
2022-10-28T22:11:15.725Z,52.28
2022-10-28T22:13:42.729Z,50.17
2022-10-28T22:16:15.516Z,49.90
2022-10-28T22:18:43.176Z,43.28
2022-10-28T22:21:13.268Z,44.72
2022-10-28T22:23:40.324Z,47.65
2022-10-28T22:26:10.133Z,43.88
2022-10-28T22:28:37.336Z,41.33
2022-10-28T22:33:33.127Z,51.03
2022-10-28T22:36:05.347Z,48.10
2022-10-28T22:38:32.559Z,43.90
2022-10-28T22:41:08.843Z,44.58
2022-10-28T22:43:35.668Z,41.65
2022-10-28T22:46:02.662Z,42.88
2022-10-28T22:48:29.995Z,39.38
2022-10-28T22:50:57.139Z,41.25
2022-10-28T22:53:24.285Z,47.83
2022-10-28T22:55:52.875Z,36.38
2022-10-28T22:58:20.660Z,43.90
2022-10-28T23:00:47.574Z,42.92
2022-10-28T23:03:14.902Z,42.72
2022-10-28T23:05:41.774Z,36.90
2022-10-28T23:08:12.308Z,34.45
2022-10-28T23:10:39.258Z,39.20
2022-10-28T23:13:06.099Z,36.97
2022-10-28T23:15:33.744Z,41.95
2022-10-28T23:18:19.473Z,42.40
2022-10-28T23:20:46.313Z,41.97
2022-10-28T23:23:15.705Z,38.42
2022-10-28T23:25:42.861Z,38.35
2022-10-28T23:28:10.378Z,42.75
2022-10-28T23:30:37.209Z,38.53
2022-10-28T23:33:04.262Z,33.08
2022-10-28T23:35:31.145Z,45.08
2022-10-28T23:37:59.383Z,41.15
2022-10-28T23:40:26.584Z,41.53
2022-10-28T23:42:53.680Z,43.55
2022-10-28T23:45:20.725Z,44.47
2022-10-28T23:47:47.582Z,38.78
2022-10-28T23:50:15.081Z,40.30
2022-10-28T23:52:42.094Z,36.75
2022-10-28T23:55:09.567Z,37.90
2022-10-28T23:57:36.434Z,44.13
